Leeds, New York
Current Conditions -  °F | °C
As of 4:54 AM on Saturday 25 Oct 2014 (Local Time) from KPSF Reporting Station
Clear Clear  
Wind Chill: 37°   Ceiling: Unl
Heat Index: 44°   Visibility: 10mi
Dew Point: 40°   Wind: 14mph
Humidity: 85%   Direction: 290°WNW
Pressure: 29.81"   Gusts: NA
Location:  42.26°N, 73.9°W
Report Text: KPSF 250854Z AUTO 29012KT 10SM CLR 07/04 A2981 RMK AO2 SLP092 T00670044 53002
Loading
Personal Weather Stations






























Interactive Weather Map
Tropical Storm Tracking
New forecast layout! Learn more

10-Day Weather Forecast

Advertisements
Track Severe Weather on mobile